Chicago, Illinois
Traffic Map
Current Weather Conditions
Chicago, Illinois
Overcast Haze
Overcast

Feels Like: 3°
Wind Chill: Ceiling: 600
Heat Index: Visibility: 1.7mi
Dew Point: Wind: 5mph
Humidity: 93% Direction: 80° (E)
Pressure: 29.66in Gusts: 0mph
Raw Report DataKMDW 202353Z 08004KT 1 3/4SM BR OVC006 05/04 A2966 RMK AO2 SLP051 T00500039 10056 20039 51010
Traffic Incident Summary
Active as of:
Severity:
Category:
InformationThere was an issue retrieving the traffic information for this location. Please try a different location or try again shortly.
Advertisements
Track Severe Weather on mobile